createdAt,value
2023-04-18T00:00:49.482Z,31.77
2023-04-18T00:01:49.587Z,31.74
2023-04-18T00:02:49.756Z,31.72
2023-04-18T00:04:48.860Z,31.71
2023-04-18T00:05:49.744Z,31.69
2023-04-18T00:06:49.794Z,31.68
2023-04-18T00:07:49.824Z,31.67
2023-04-18T00:08:49.867Z,31.68
2023-04-18T00:09:49.930Z,31.67
2023-04-18T00:10:49.998Z,31.67
2023-04-18T00:11:50.024Z,31.66
2023-04-18T00:12:50.062Z,31.66
2023-04-18T00:13:50.088Z,31.65
2023-04-18T00:14:50.130Z,31.66
2023-04-18T00:15:50.158Z,31.65
2023-04-18T00:16:50.208Z,31.65
2023-04-18T00:17:50.314Z,31.66
2023-04-18T00:18:50.274Z,31.66
2023-04-18T00:19:50.307Z,31.65
2023-04-18T00:20:50.318Z,31.64
2023-04-18T00:21:50.348Z,31.65
2023-04-18T00:22:50.394Z,31.66
2023-04-18T00:23:50.426Z,31.64
2023-04-18T00:24:50.438Z,31.65
2023-04-18T00:25:50.462Z,31.63
2023-04-18T00:26:50.510Z,31.63
2023-04-18T00:27:50.507Z,31.65
2023-04-18T00:28:50.556Z,31.65
2023-04-18T00:29:50.583Z,31.62
2023-04-18T00:30:50.687Z,31.64
2023-04-18T00:31:50.672Z,31.63
2023-04-18T00:32:50.834Z,31.63
2023-04-18T00:33:50.704Z,31.64
2023-04-18T00:34:50.734Z,31.62
2023-04-18T00:35:50.787Z,31.62
2023-04-18T00:36:50.791Z,31.61
2023-04-18T00:37:50.818Z,31.63
2023-04-18T00:38:50.872Z,31.64
2023-04-18T00:39:50.861Z,31.62
2023-04-18T00:40:50.883Z,31.63
2023-04-18T00:41:50.894Z,31.61
2023-04-18T00:42:50.923Z,31.62
2023-04-18T00:43:50.900Z,31.62
2023-04-18T00:44:50.922Z,31.60
2023-04-18T00:45:50.988Z,31.62
2023-04-18T00:46:50.935Z,31.63
2023-04-18T00:47:51.004Z,31.62
2023-04-18T00:48:50.975Z,31.62
2023-04-18T00:49:50.967Z,31.61
2023-04-18T00:50:50.985Z,31.62
2023-04-18T00:51:51.021Z,31.62
2023-04-18T00:52:51.031Z,31.62
2023-04-18T00:53:51.033Z,31.62
2023-04-18T00:54:51.053Z,31.61
2023-04-18T00:55:51.047Z,31.62
2023-04-18T00:56:51.069Z,31.61
2023-04-18T00:57:51.081Z,31.61
2023-04-18T00:58:51.106Z,31.61
2023-04-18T00:59:51.081Z,31.60
2023-04-18T01:00:51.099Z,31.60
2023-04-18T01:01:51.126Z,31.61
2023-04-18T01:02:51.180Z,31.59
2023-04-18T01:03:51.145Z,31.60
2023-04-18T01:04:51.071Z,31.60
2023-04-18T01:05:51.069Z,31.59
2023-04-18T01:06:51.069Z,31.60
2023-04-18T01:07:51.054Z,31.59
2023-04-18T01:08:51.052Z,31.60
2023-04-18T01:09:51.049Z,31.60
2023-04-18T01:10:51.043Z,31.59
2023-04-18T01:11:51.031Z,31.57
2023-04-18T01:12:51.036Z,31.60
2023-04-18T01:13:51.023Z,31.58
2023-04-18T01:14:51.040Z,31.59
2023-04-18T01:15:51.091Z,31.57
2023-04-18T01:16:51.043Z,31.58
2023-04-18T01:17:51.046Z,31.58
2023-04-18T01:18:51.021Z,31.57
2023-04-18T01:19:51.082Z,31.56
2023-04-18T01:20:51.025Z,31.55
2023-04-18T01:21:51.009Z,31.57
2023-04-18T01:22:51.005Z,31.56
2023-04-18T01:23:51.007Z,31.55
2023-04-18T01:24:51.010Z,31.57
2023-04-18T01:25:51.008Z,31.57
2023-04-18T01:26:50.998Z,31.57
2023-04-18T01:27:50.991Z,31.55
2023-04-18T01:28:50.997Z,31.56
2023-04-18T01:29:50.997Z,31.57
2023-04-18T01:30:51.031Z,31.55
2023-04-18T01:31:51.000Z,31.58
2023-04-18T01:32:51.046Z,31.55
2023-04-18T01:33:50.990Z,31.55
2023-04-18T01:34:51.003Z,31.55
2023-04-18T01:35:51.006Z,31.58
2023-04-18T01:36:51.002Z,31.58
2023-04-18T01:37:50.999Z,31.58
2023-04-18T01:38:50.990Z,31.54
2023-04-18T01:39:50.975Z,31.54
2023-04-18T01:40:50.990Z,31.56
2023-04-18T01:41:50.998Z,31.55
2023-04-18T01:42:50.998Z,31.56
2023-04-18T01:43:50.970Z,31.56
2023-04-18T01:44:50.986Z,31.57
2023-04-18T01:45:50.962Z,31.55
2023-04-18T01:46:51.024Z,31.56
2023-04-18T01:47:51.038Z,31.53
2023-04-18T01:48:50.957Z,31.54
2023-04-18T01:49:50.951Z,31.55
2023-04-18T01:50:50.955Z,31.53
2023-04-18T01:51:50.965Z,31.55
2023-04-18T01:52:50.958Z,31.56
2023-04-18T01:53:50.930Z,31.57
2023-04-18T01:54:50.928Z,31.55
2023-04-18T01:55:50.961Z,31.54
2023-04-18T01:56:50.931Z,31.55
2023-04-18T01:57:50.939Z,31.53
2023-04-18T01:58:50.924Z,31.53
2023-04-18T01:59:50.917Z,31.53
2023-04-18T02:00:50.925Z,31.54
2023-04-18T02:01:50.933Z,31.54
2023-04-18T02:02:51.084Z,31.55
2023-04-18T02:03:51.147Z,31.54
2023-04-18T02:04:50.893Z,31.51
2023-04-18T02:05:50.883Z,31.55
2023-04-18T02:06:50.891Z,31.54
2023-04-18T02:07:50.878Z,31.55
2023-04-18T02:08:50.873Z,31.53
2023-04-18T02:09:50.860Z,31.56
2023-04-18T02:10:50.856Z,31.54
2023-04-18T02:11:50.862Z,31.53
2023-04-18T02:12:50.860Z,31.54
2023-04-18T02:13:50.852Z,31.52
2023-04-18T02:14:50.845Z,31.53
2023-04-18T02:15:50.836Z,31.50
2023-04-18T02:16:50.980Z,31.52
2023-04-18T02:17:50.878Z,31.51
2023-04-18T02:18:50.926Z,31.52
2023-04-18T02:19:50.817Z,31.51
2023-04-18T02:20:50.805Z,31.51
2023-04-18T02:21:50.806Z,31.52
2023-04-18T02:22:50.795Z,31.51
2023-04-18T02:23:50.789Z,31.53
2023-04-18T02:24:50.791Z,31.53
2023-04-18T02:25:50.836Z,31.53
2023-04-18T02:26:50.784Z,31.52
2023-04-18T02:27:50.770Z,31.54
2023-04-18T02:28:50.760Z,31.51
2023-04-18T02:29:50.763Z,31.52
2023-04-18T02:30:50.747Z,31.51
2023-04-18T02:31:50.844Z,31.50
2023-04-18T02:32:50.825Z,31.52
2023-04-18T02:33:50.743Z,31.52
2023-04-18T02:34:50.769Z,31.51
2023-04-18T02:35:50.748Z,31.51
2023-04-18T02:36:50.742Z,31.52
2023-04-18T02:37:50.732Z,31.51
2023-04-18T02:38:50.730Z,31.53
2023-04-18T02:39:50.719Z,31.50
2023-04-18T02:40:50.704Z,31.50
2023-04-18T02:41:50.713Z,31.51
2023-04-18T02:42:50.701Z,31.49
2023-04-18T02:43:50.692Z,31.50
2023-04-18T02:44:50.692Z,31.50
2023-04-18T02:45:50.719Z,31.50
2023-04-18T02:46:50.679Z,31.51
2023-04-18T02:47:55.395Z,31.50
2023-04-18T02:48:50.653Z,31.50
2023-04-18T02:49:50.660Z,31.51
2023-04-18T02:50:50.686Z,31.49
2023-04-18T02:51:50.631Z,31.49
2023-04-18T02:52:50.609Z,31.50
2023-04-18T02:53:50.593Z,31.47
2023-04-18T02:54:50.586Z,31.50
2023-04-18T02:55:50.583Z,31.49
2023-04-18T02:56:50.580Z,31.49
2023-04-18T02:57:50.574Z,31.50
2023-04-18T02:58:50.570Z,31.49
2023-04-18T02:59:50.561Z,31.49
2023-04-18T03:00:50.555Z,31.48
2023-04-18T03:01:50.559Z,31.50
2023-04-18T03:02:50.676Z,31.50
2023-04-18T03:03:50.544Z,31.51
2023-04-18T03:04:50.563Z,31.48
2023-04-18T03:05:50.529Z,31.50
2023-04-18T03:06:50.561Z,31.48
2023-04-18T03:07:50.523Z,31.48
2023-04-18T03:08:50.512Z,31.49
2023-04-18T03:09:50.508Z,31.50
2023-04-18T03:10:50.503Z,31.48
2023-04-18T03:11:50.490Z,31.49
2023-04-18T03:12:50.478Z,31.47
2023-04-18T03:13:50.470Z,31.49
2023-04-18T03:14:50.444Z,31.47
2023-04-18T03:15:50.466Z,31.49
2023-04-18T03:16:51.772Z,31.49
2023-04-18T03:17:50.473Z,31.47
2023-04-18T03:18:50.396Z,31.49
2023-04-18T03:19:50.395Z,31.47
2023-04-18T03:20:50.370Z,31.49
2023-04-18T03:21:50.368Z,31.47
2023-04-18T03:22:50.370Z,31.47
2023-04-18T03:23:50.346Z,31.48
2023-04-18T03:24:50.340Z,31.50
2023-04-18T03:25:50.314Z,31.49
2023-04-18T03:26:50.316Z,31.49
2023-04-18T03:27:50.290Z,31.47
2023-04-18T03:28:50.284Z,31.48
2023-04-18T03:29:50.274Z,31.47
2023-04-18T03:30:50.424Z,31.48
2023-04-18T03:31:50.246Z,31.47
2023-04-18T03:32:50.288Z,31.49
2023-04-18T03:33:50.237Z,31.47
2023-04-18T03:34:50.225Z,31.48
2023-04-18T03:35:50.216Z,31.49
2023-04-18T03:36:50.208Z,31.49
2023-04-18T03:37:50.196Z,31.48
2023-04-18T03:38:50.216Z,31.49
2023-04-18T03:39:50.194Z,31.49
2023-04-18T03:40:50.179Z,31.48
2023-04-18T03:41:50.157Z,31.49
2023-04-18T03:42:50.140Z,31.47
2023-04-18T03:43:50.136Z,31.48
2023-04-18T03:44:50.148Z,31.46
2023-04-18T03:45:50.142Z,31.46
2023-04-18T03:46:50.104Z,31.48
2023-04-18T03:47:50.140Z,31.46
2023-04-18T03:48:50.077Z,31.45
2023-04-18T03:49:50.060Z,31.47
2023-04-18T03:50:50.060Z,31.46
2023-04-18T03:51:50.049Z,31.47
2023-04-18T03:52:50.043Z,31.50
2023-04-18T03:53:50.033Z,31.48
2023-04-18T03:54:50.056Z,31.46
2023-04-18T03:55:50.021Z,31.46
2023-04-18T03:56:50.014Z,31.47
2023-04-18T03:57:50.014Z,31.47
2023-04-18T03:58:50.010Z,31.44
2023-04-18T03:59:50.027Z,31.49
2023-04-18T04:00:50.000Z,31.45
2023-04-18T04:01:50.035Z,31.46
2023-04-18T04:02:50.186Z,31.46
2023-04-18T04:03:50.157Z,31.48
2023-04-18T04:04:50.031Z,31.47
2023-04-18T04:05:50.108Z,31.48
2023-04-18T04:06:49.938Z,31.46
2023-04-18T04:07:49.924Z,31.44
2023-04-18T04:08:49.925Z,31.46
2023-04-18T04:09:49.927Z,31.47
2023-04-18T04:10:49.980Z,31.46
2023-04-18T04:11:49.886Z,31.47
2023-04-18T04:12:49.916Z,31.46
2023-04-18T04:13:49.875Z,31.47
2023-04-18T04:14:49.869Z,31.47
2023-04-18T04:15:49.857Z,31.47
2023-04-18T04:16:50.043Z,31.46
2023-04-18T04:17:49.896Z,31.48
2023-04-18T04:18:49.841Z,31.46
2023-04-18T04:19:49.837Z,31.44
2023-04-18T04:20:49.867Z,31.45
2023-04-18T04:21:49.809Z,31.46
2023-04-18T04:22:49.802Z,31.47
2023-04-18T04:23:49.791Z,31.45
2023-04-18T04:24:49.782Z,31.45
2023-04-18T04:25:49.772Z,31.45
2023-04-18T04:26:49.795Z,31.45
2023-04-18T04:27:49.757Z,31.46
2023-04-18T04:28:49.748Z,31.47
2023-04-18T04:29:49.778Z,31.45
2023-04-18T04:30:49.725Z,31.46
2023-04-18T04:31:49.736Z,31.45
2023-04-18T04:32:49.806Z,31.45
2023-04-18T04:33:49.701Z,31.43
2023-04-18T04:34:49.689Z,31.45
2023-04-18T04:35:49.761Z,31.44
2023-04-18T04:36:49.666Z,31.43
2023-04-18T04:37:49.668Z,31.42
2023-04-18T04:38:49.660Z,31.45
2023-04-18T04:39:49.649Z,31.44
2023-04-18T04:40:49.646Z,31.45
2023-04-18T04:41:49.660Z,31.45
2023-04-18T04:42:49.719Z,31.44
2023-04-18T04:43:49.626Z,31.46
2023-04-18T04:44:49.768Z,31.43
2023-04-18T04:45:49.659Z,31.43
2023-04-18T04:46:49.618Z,31.46
2023-04-18T04:47:49.668Z,31.44
2023-04-18T04:48:49.614Z,31.45
2023-04-18T04:49:49.601Z,31.43
2023-04-18T04:50:49.595Z,31.44
2023-04-18T04:51:49.594Z,31.43
2023-04-18T04:52:49.620Z,31.44
2023-04-18T04:53:49.596Z,31.43
2023-04-18T04:54:49.595Z,31.43
2023-04-18T04:55:49.577Z,31.41
2023-04-18T04:56:49.586Z,31.42
2023-04-18T04:57:49.581Z,31.42
2023-04-18T04:58:49.607Z,31.44
2023-04-18T04:59:49.586Z,31.45
2023-04-18T05:00:49.671Z,31.44
2023-04-18T05:01:49.678Z,31.44
2023-04-18T05:02:49.941Z,31.44
2023-04-18T05:03:49.861Z,31.41
2023-04-18T05:04:49.676Z,31.43
2023-04-18T05:05:49.694Z,31.45
2023-04-18T05:06:49.701Z,31.44
2023-04-18T05:07:49.740Z,31.44
2023-04-18T05:08:49.747Z,31.42
2023-04-18T05:09:49.760Z,31.42
2023-04-18T05:10:49.783Z,31.42
2023-04-18T05:11:49.808Z,31.41
2023-04-18T05:12:49.824Z,31.44
2023-04-18T05:13:49.836Z,31.41
2023-04-18T05:14:49.888Z,31.43
2023-04-18T05:15:49.870Z,31.42
2023-04-18T05:16:49.902Z,31.42
2023-04-18T05:17:50.086Z,31.42
2023-04-18T05:18:49.911Z,31.42
2023-04-18T05:19:49.994Z,31.40
2023-04-18T05:20:49.908Z,31.39
2023-04-18T05:21:49.895Z,31.40
2023-04-18T05:22:49.899Z,31.42
2023-04-18T05:23:49.886Z,31.49
2023-04-18T05:24:49.988Z,31.50
2023-04-18T05:25:49.859Z,31.49
2023-04-18T05:26:49.877Z,31.54
2023-04-18T05:27:49.857Z,31.55
2023-04-18T05:28:49.854Z,31.53
2023-04-18T05:29:49.855Z,31.56
2023-04-18T05:30:50.036Z,31.57
2023-04-18T05:31:49.847Z,31.57
2023-04-18T05:32:49.876Z,31.57
2023-04-18T05:33:49.831Z,31.58
2023-04-18T05:34:49.812Z,31.63
2023-04-18T05:35:49.799Z,31.63
2023-04-18T05:36:49.801Z,31.62
2023-04-18T05:37:49.992Z,31.63
2023-04-18T05:38:49.825Z,31.70
2023-04-18T05:39:50.010Z,31.74
2023-04-18T05:40:49.799Z,31.72
2023-04-18T05:41:49.816Z,31.76
2023-04-18T05:42:49.805Z,31.84
2023-04-18T05:44:01.871Z,31.90
2023-04-18T05:44:49.803Z,31.93
2023-04-18T05:45:49.789Z,31.96
2023-04-18T05:46:49.811Z,32.00
2023-04-18T05:47:49.767Z,32.00
2023-04-18T05:48:50.001Z,32.03
2023-04-18T05:49:50.090Z,32.06
2023-04-18T05:50:49.738Z,32.17
2023-04-18T05:51:49.759Z,32.32
2023-04-18T05:52:49.691Z,32.28
2023-04-18T05:53:50.019Z,32.23
2023-04-18T05:54:49.699Z,32.31
2023-04-18T05:55:49.937Z,32.30
2023-04-18T05:56:49.730Z,32.42
2023-04-18T05:57:49.642Z,32.64
2023-04-18T05:58:50.003Z,32.75
2023-04-18T05:59:50.041Z,32.90
2023-04-18T06:00:49.624Z,32.60
2023-04-18T06:01:49.606Z,32.57
2023-04-18T06:02:49.861Z,32.93
2023-04-18T06:03:50.206Z,33.49
2023-04-18T06:04:49.960Z,33.48
2023-04-18T06:05:49.681Z,33.51
2023-04-18T06:06:49.571Z,33.42
2023-04-18T06:07:50.011Z,33.40
2023-04-18T06:08:49.593Z,33.35
2023-04-18T06:09:50.018Z,33.42
2023-04-18T06:10:49.576Z,33.46
2023-04-18T06:11:49.582Z,33.45
2023-04-18T06:12:49.960Z,33.39
2023-04-18T06:13:50.012Z,33.30
2023-04-18T06:14:50.725Z,33.30
2023-04-18T06:15:50.118Z,33.27
2023-04-18T06:16:49.996Z,33.26
2023-04-18T06:17:50.228Z,33.20
2023-04-18T06:18:49.987Z,33.17
2023-04-18T06:19:50.824Z,33.14
2023-04-18T06:20:50.079Z,33.11
2023-04-18T06:21:49.912Z,33.09
2023-04-18T06:22:50.134Z,33.05
2023-04-18T06:23:50.661Z,33.03
2023-04-18T06:24:50.011Z,33.01
2023-04-18T06:25:50.362Z,32.99
2023-04-18T06:26:49.708Z,32.96
2023-04-18T06:27:49.854Z,32.96
2023-04-18T06:28:50.104Z,32.93
2023-04-18T06:29:50.673Z,32.91
2023-04-18T06:30:49.917Z,32.90
2023-04-18T06:31:49.789Z,32.89
2023-04-18T06:32:49.957Z,32.86
2023-04-18T06:33:49.882Z,32.86
2023-04-18T06:34:50.073Z,32.84
2023-04-18T06:35:49.566Z,32.84
2023-04-18T06:36:49.581Z,32.80
2023-04-18T06:37:49.567Z,32.81
2023-04-18T06:38:50.014Z,32.79
2023-04-18T06:39:49.577Z,32.76
2023-04-18T06:40:49.596Z,32.76
2023-04-18T06:41:49.627Z,32.94
2023-04-18T06:42:49.631Z,32.89
2023-04-18T06:44:14.539Z,32.85
2023-04-18T06:44:49.626Z,32.84
2023-04-18T06:45:49.659Z,32.83
2023-04-18T06:46:49.630Z,32.83
2023-04-18T06:47:49.702Z,32.78
2023-04-18T06:48:51.433Z,32.78
2023-04-18T06:49:49.715Z,32.77
2023-04-18T06:50:49.662Z,32.75
2023-04-18T06:51:49.616Z,32.75
2023-04-18T06:52:50.034Z,32.70
2023-04-18T06:53:49.612Z,32.70
2023-04-18T06:54:50.023Z,32.66
2023-04-18T06:55:49.626Z,32.66
2023-04-18T06:56:49.645Z,32.67
2023-04-18T06:57:49.601Z,32.64
2023-04-18T06:58:50.024Z,32.63
2023-04-18T06:59:49.588Z,32.61
2023-04-18T07:00:50.067Z,32.60
2023-04-18T07:01:49.584Z,32.61
2023-04-18T07:02:49.735Z,32.59
2023-04-18T07:03:50.195Z,32.61
2023-04-18T07:04:49.577Z,32.57
2023-04-18T07:05:49.568Z,32.57
2023-04-18T07:06:49.591Z,32.56
2023-04-18T07:07:49.569Z,32.56
2023-04-18T07:08:50.020Z,32.55
2023-04-18T07:09:49.553Z,32.53
2023-04-18T07:10:49.569Z,32.52
2023-04-18T07:11:49.531Z,32.53
2023-04-18T07:12:49.528Z,32.54
2023-04-18T07:13:50.027Z,32.49
2023-04-18T07:14:49.627Z,32.51
2023-04-18T07:15:49.534Z,32.49
2023-04-18T07:16:49.559Z,32.48
2023-04-18T07:17:49.572Z,32.48
2023-04-18T07:18:49.588Z,32.46
2023-04-18T07:19:49.656Z,32.46
2023-04-18T07:20:49.689Z,32.47
2023-04-18T07:21:49.770Z,32.44
2023-04-18T07:22:50.028Z,32.45
2023-04-18T07:23:50.033Z,32.41
2023-04-18T07:24:49.869Z,32.41
2023-04-18T07:25:49.935Z,32.40
2023-04-18T07:26:49.991Z,32.41
2023-04-18T07:27:50.532Z,32.42
2023-04-18T07:28:50.530Z,32.39
2023-04-18T07:29:50.105Z,32.40
2023-04-18T07:30:50.247Z,32.39
2023-04-18T07:31:50.196Z,32.36
2023-04-18T07:32:50.403Z,32.35
2023-04-18T07:33:50.558Z,32.35
2023-04-18T07:34:50.362Z,32.35
2023-04-18T07:35:50.391Z,32.34
2023-04-18T07:36:50.467Z,32.33
2023-04-18T07:37:50.500Z,32.35
2023-04-18T07:38:51.077Z,32.37
2023-04-18T07:39:50.625Z,32.41
2023-04-18T07:40:50.718Z,32.53
2023-04-18T07:41:50.747Z,32.72
2023-04-18T07:42:50.838Z,32.78
2023-04-18T07:43:51.081Z,32.90
2023-04-18T07:44:50.940Z,32.98
2023-04-18T07:45:51.054Z,33.09
2023-04-18T07:46:51.080Z,33.14
2023-04-18T07:48:50.543Z,33.26
2023-04-18T07:49:51.255Z,33.31
2023-04-18T07:50:51.545Z,33.31
2023-04-18T07:51:51.374Z,33.44
2023-04-18T07:52:51.420Z,33.45
2023-04-18T07:53:51.461Z,33.57
2023-04-18T07:54:51.565Z,33.65
2023-04-18T07:55:52.049Z,33.79
2023-04-18T07:56:51.609Z,33.87
2023-04-18T07:57:51.742Z,33.90
2023-04-18T07:58:51.668Z,33.96
2023-04-18T07:59:51.713Z,34.03
2023-04-18T08:00:52.044Z,34.09
2023-04-18T08:01:51.767Z,34.14
2023-04-18T08:02:51.971Z,34.23
2023-04-18T08:03:51.966Z,34.34
2023-04-18T08:04:52.173Z,34.35
2023-04-18T08:05:52.061Z,34.39
2023-04-18T08:06:51.899Z,34.48
2023-04-18T08:07:51.920Z,34.53
2023-04-18T08:08:52.057Z,34.65
2023-04-18T08:09:51.978Z,34.69
2023-04-18T08:10:52.045Z,34.80
2023-04-18T08:11:52.007Z,34.81
2023-04-18T08:12:52.020Z,34.92
2023-04-18T08:13:52.044Z,35.01
2023-04-18T08:14:52.358Z,35.07
2023-04-18T08:15:52.602Z,35.13
2023-04-18T08:16:52.102Z,35.18
2023-04-18T08:17:52.125Z,35.33
2023-04-18T08:18:52.113Z,35.42
2023-04-18T08:19:52.552Z,35.52
2023-04-18T08:20:52.124Z,35.52
2023-04-18T08:21:52.141Z,35.58
2023-04-18T08:23:06.008Z,35.74
2023-04-18T08:23:52.142Z,35.80
2023-04-18T08:25:52.141Z,35.94
2023-04-18T08:26:52.770Z,36.00
2023-04-18T08:27:52.660Z,36.12
2023-04-18T08:28:52.111Z,36.13
2023-04-18T08:29:52.561Z,36.30
2023-04-18T08:30:52.131Z,36.31
2023-04-18T08:31:52.111Z,36.40
2023-04-18T08:32:52.222Z,36.39
2023-04-18T08:33:52.063Z,36.47
2023-04-18T08:34:52.057Z,36.52
2023-04-18T08:35:52.059Z,36.60
2023-04-18T08:36:52.030Z,36.71
2023-04-18T08:37:52.033Z,36.79
2023-04-18T08:38:52.014Z,36.85
2023-04-18T08:39:52.060Z,36.92
2023-04-18T08:40:51.998Z,37.09
2023-04-18T08:41:51.987Z,37.10
2023-04-18T08:42:52.167Z,37.29
2023-04-18T08:43:52.061Z,37.29
2023-04-18T08:44:52.071Z,37.37
2023-04-18T08:45:53.043Z,37.37
2023-04-18T08:46:51.957Z,37.42
2023-04-18T08:47:51.957Z,37.50
2023-04-18T08:48:51.909Z,37.57
2023-04-18T08:49:52.155Z,37.68
2023-04-18T08:50:51.889Z,37.74
2023-04-18T08:51:51.869Z,37.88
2023-04-18T08:52:51.891Z,37.91
2023-04-18T08:53:52.077Z,38.08
2023-04-18T08:54:51.843Z,38.11
2023-04-18T08:55:51.822Z,38.18
2023-04-18T08:56:51.833Z,38.25
2023-04-18T08:57:51.791Z,38.31
2023-04-18T08:58:52.118Z,38.37
2023-04-18T08:59:51.759Z,38.53
2023-04-18T09:00:51.811Z,38.45
2023-04-18T09:01:51.728Z,38.63
2023-04-18T09:02:52.157Z,38.67
2023-04-18T09:03:51.737Z,38.71
2023-04-18T09:04:51.704Z,38.68
2023-04-18T09:05:51.652Z,38.80
2023-04-18T09:06:51.646Z,38.85
2023-04-18T09:07:52.065Z,38.87
2023-04-18T09:08:51.762Z,38.97
2023-04-18T09:09:51.603Z,39.01
2023-04-18T09:10:51.619Z,39.12
2023-04-18T09:11:51.631Z,39.24
2023-04-18T09:12:52.245Z,39.27
2023-04-18T09:13:51.730Z,39.39
2023-04-18T09:14:51.783Z,39.38
2023-04-18T09:15:51.788Z,39.42
2023-04-18T09:16:51.876Z,39.55
2023-04-18T09:17:52.092Z,39.61
2023-04-18T09:18:51.843Z,39.64
2023-04-18T09:19:51.829Z,38.30
2023-04-18T09:20:51.836Z,36.42
2023-04-18T09:21:52.086Z,36.54
2023-04-18T09:22:51.955Z,36.82
2023-04-18T09:23:51.957Z,36.96
2023-04-18T09:24:51.978Z,37.43
2023-04-18T09:25:52.074Z,37.32
2023-04-18T09:26:52.077Z,37.15
2023-04-18T09:27:52.116Z,37.37
2023-04-18T09:28:53.861Z,37.33
2023-04-18T09:29:52.067Z,37.53
2023-04-18T09:30:52.103Z,38.00
2023-04-18T09:31:52.078Z,38.05
2023-04-18T09:32:52.106Z,38.01
2023-04-18T09:33:52.009Z,37.79
2023-04-18T09:34:51.997Z,37.64
2023-04-18T09:35:52.004Z,37.48
2023-04-18T09:36:52.130Z,37.40
2023-04-18T09:37:51.969Z,37.33
2023-04-18T09:38:53.701Z,37.29
2023-04-18T09:39:52.927Z,37.28
2023-04-18T09:40:52.083Z,37.22
2023-04-18T09:41:51.922Z,37.41
2023-04-18T09:42:51.900Z,37.34
2023-04-18T09:43:51.893Z,36.44
2023-04-18T09:44:51.883Z,35.66
2023-04-18T09:45:52.116Z,35.22
2023-04-18T09:46:52.075Z,34.28
2023-04-18T09:47:52.120Z,34.10
2023-04-18T09:48:51.836Z,33.89
2023-04-18T09:49:51.838Z,33.68
2023-04-18T09:50:51.846Z,33.80
2023-04-18T09:51:52.591Z,34.53
2023-04-18T09:52:51.796Z,34.45
